Time;durP1;ratioP1;P1;durP2;ratioP2;P2;SDS_P1;SDS_P2;PMS_P1;PMS_P2;Temp;Humidity;BMP_temperature;BMP_pressure;BME280_temperature;BME280_humidity;BME280_pressure;Samples;Min_cycle;Max_cycle;Signal;HPM_P1;HPM_P2
2021/03/22 00:00:45;;;;;;;22.85;15.15;;;;;;;0.88;61.50;98606.78;1742776;82;21141;-71
2021/03/22 00:03:13;;;;;;;25.92;16.90;;;;;;;0.86;61.52;98605.37;1742737;82;21169;-70
2021/03/22 00:05:43;;;;;;;21.27;14.28;;;;;;;0.88;61.65;98597.41;1742882;82;21169;-71
2021/03/22 00:08:12;;;;;;;24.00;15.15;;;;;;;0.85;61.68;98596.52;1743284;82;21133;-70
2021/03/22 00:10:42;;;;;;;22.35;13.78;;;;;;;0.89;61.61;98597.67;1755264;82;21153;-72
2021/03/22 00:13:10;;;;;;;21.12;14.05;;;;;;;0.84;61.72;98598.92;1750181;82;21142;-70
2021/03/22 00:15:41;;;;;;;21.10;14.40;;;;;;;0.84;61.72;98587.39;1749411;82;21122;-72
2021/03/22 00:18:13;;;;;;;23.27;15.08;;;;;;;0.77;61.88;98586.19;1749228;82;21291;-69
2021/03/22 00:20:41;;;;;;;21.90;14.35;;;;;;;0.76;61.86;98587.23;1749421;82;21799;-71
2021/03/22 00:23:10;;;;;;;21.93;15.18;;;;;;;0.72;61.95;98574.53;1749516;81;21601;-71
2021/03/22 00:25:39;;;;;;;23.52;15.70;;;;;;;0.72;61.97;98574.02;1749604;82;21446;-71
2021/03/22 00:28:10;;;;;;;22.40;15.10;;;;;;;0.69;61.96;98569.66;1748957;82;21133;-72
2021/03/22 00:30:40;;;;;;;24.18;16.12;;;;;;;0.72;61.85;98575.35;1749601;82;21178;-71
2021/03/22 00:33:10;;;;;;;23.55;14.90;;;;;;;0.70;61.86;98566.75;1749752;82;21154;-72
2021/03/22 00:35:40;;;;;;;21.48;14.78;;;;;;;0.65;61.94;98564.48;1749671;80;21174;-71
2021/03/22 00:38:08;;;;;;;20.92;13.95;;;;;;;0.59;62.04;98566.77;1749244;82;21181;-71
2021/03/22 00:40:39;;;;;;;21.73;14.18;;;;;;;0.55;62.18;98561.07;1749363;80;21330;-71
2021/03/22 00:43:08;;;;;;;24.02;16.17;;;;;;;0.57;62.15;98564.87;1741864;82;21178;-71
2021/03/22 00:45:38;;;;;;;23.42;14.65;;;;;;;0.52;62.30;98555.38;1738335;82;21183;-70
2021/03/22 00:48:07;;;;;;;23.38;14.95;;;;;;;0.53;62.34;98560.50;1740849;82;21173;-69
2021/03/22 00:50:38;;;;;;;19.92;14.60;;;;;;;0.48;62.45;98554.51;1740019;82;21153;-70
2021/03/22 00:53:07;;;;;;;21.60;14.63;;;;;;;0.45;62.50;98565.70;1740134;82;21165;-70
2021/03/22 00:55:34;;;;;;;23.42;15.08;;;;;;;0.40;62.70;98557.54;1740299;82;21593;-70
2021/03/22 00:58:02;;;;;;;21.55;13.38;;;;;;;0.39;62.72;98565.27;1739416;82;21206;-69
2021/03/22 01:00:41;;;;;;;23.27;15.38;;;;;;;0.37;62.90;98564.70;1741426;82;21186;-70
2021/03/22 01:03:13;;;;;;;24.30;14.83;;;;;;;0.37;62.95;98564.70;1745574;81;21158;-70
2021/03/22 01:05:42;;;;;;;22.17;14.35;;;;;;;0.36;63.08;98552.87;1744598;81;21648;-71
2021/03/22 01:08:10;;;;;;;19.85;13.62;;;;;;;0.36;63.13;98555.56;1740550;82;21310;-70
2021/03/22 01:10:57;;;;;;;20.55;14.43;;;;;;;0.35;63.34;98560.13;1721513;82;21617;-70
2021/03/22 01:13:35;;;;;;;23.75;15.55;;;;;;;0.34;63.45;98560.34;1740123;82;21130;-70
2021/03/22 01:16:04;;;;;;;23.30;14.80;;;;;;;0.37;63.44;98550.50;1737043;82;21177;-70
2021/03/22 01:18:43;;;;;;;20.50;14.30;;;;;;;0.32;63.61;98553.87;1740196;82;21597;-70
2021/03/22 01:21:19;;;;;;;22.30;15.70;;;;;;;0.34;63.64;98559.00;1740328;82;21166;-70
2021/03/22 01:23:46;;;;;;;21.17;14.90;;;;;;;0.37;63.77;98555.34;1739889;82;21642;-70
2021/03/22 01:26:16;;;;;;;22.82;14.95;;;;;;;0.41;63.58;98558.36;1740231;82;21185;-72
2021/03/22 01:28:43;;;;;;;22.73;15.40;;;;;;;0.40;63.72;98558.88;1740154;82;21323;-71
2021/03/22 01:31:11;;;;;;;26.48;16.10;;;;;;;0.44;63.78;98557.88;1739989;82;21466;-70
2021/03/22 01:33:41;;;;;;;24.60;15.98;;;;;;;0.42;63.83;98546.09;1740193;82;21188;-69
2021/03/22 01:36:14;;;;;;;21.50;14.07;;;;;;;0.43;63.87;98553.05;1721785;82;21161;-71
2021/03/22 01:38:42;;;;;;;23.20;16.05;;;;;;;0.40;64.09;98555.38;1740206;82;21206;-71
2021/03/22 01:41:51;;;;;;;22.37;16.20;;;;;;;0.42;64.05;98555.98;1740372;82;21628;-70
2021/03/22 01:44:33;;;;;;;21.35;14.40;;;;;;;0.39;64.15;98554.56;1746005;82;21343;-70
2021/03/22 01:47:07;;;;;;;21.15;13.70;;;;;;;0.41;64.16;98543.63;1743280;81;21663;-70
2021/03/22 01:50:09;;;;;;;25.10;15.13;;;;;;;0.39;64.22;98541.73;1729217;83;21604;-71
2021/03/22 01:52:39;;;;;;;24.52;15.83;;;;;;;0.39;64.21;98546.53;1729074;83;21177;-71
2021/03/22 01:55:08;;;;;;;23.87;15.10;;;;;;;0.37;64.28;98545.97;1736065;82;21375;-71
2021/03/22 01:57:39;;;;;;;25.55;15.72;;;;;;;0.39;64.32;98547.88;1755348;81;21200;-70
2021/03/22 02:00:22;;;;;;;23.65;15.25;;;;;;;0.41;64.20;98543.11;1755250;80;21613;-69
2021/03/22 02:02:55;;;;;;;21.93;14.30;;;;;;;0.43;64.19;98538.33;1748776;82;21180;-70
2021/03/22 02:05:27;;;;;;;24.25;15.58;;;;;;;0.42;64.10;98543.41;1754434;82;21206;-70
2021/03/22 02:08:10;;;;;;;21.95;14.70;;;;;;;0.39;64.31;98547.08;1754830;81;21208;-71
2021/03/22 02:10:40;;;;;;;20.35;14.40;;;;;;;0.40;64.25;98542.81;1729249;83;21204;-71
2021/03/22 02:13:10;;;;;;;23.75;16.50;;;;;;;0.38;64.37;98541.43;1729395;83;21537;-69
2021/03/22 02:15:40;;;;;;;22.73;15.32;;;;;;;0.41;64.32;98542.30;1730121;81;21165;-70
2021/03/22 02:18:33;;;;;;;22.25;15.03;;;;;;;0.41;64.30;98541.77;1729045;83;21204;-71
2021/03/22 02:21:34;;;;;;;20.27;12.70;;;;;;;0.42;64.22;98542.07;1728990;83;21189;-71
2021/03/22 02:24:41;;;;;;;23.00;14.35;;;;;;;0.41;64.09;98535.08;1729618;81;21184;-70
2021/03/22 02:27:38;;;;;;;20.80;13.55;;;;;;;0.39;64.15;98526.45;1731864;81;21156;-70
2021/03/22 02:30:53;;;;;;;22.87;15.15;;;;;;;0.36;64.27;98524.77;1760939;81;21213;-70
2021/03/22 02:33:52;;;;;;;24.95;15.48;;;;;;;0.38;64.28;98521.35;1759326;80;21172;-70
2021/03/22 02:36:39;;;;;;;23.38;15.15;;;;;;;0.38;64.35;98532.88;1749384;82;21165;-71
2021/03/22 02:39:07;;;;;;;21.42;13.80;;;;;;;0.38;64.53;98529.38;1755112;81;21218;-71
2021/03/22 02:41:45;;;;;;;22.95;15.35;;;;;;;0.37;64.74;98533.92;1726777;82;21351;-70
2021/03/22 02:44:31;;;;;;;24.37;15.25;;;;;;;0.34;64.95;98528.22;1743486;82;21621;-70
2021/03/22 02:47:10;;;;;;;24.15;15.20;;;;;;;0.36;64.88;98520.75;1745486;82;21186;-71
2021/03/22 02:49:38;;;;;;;22.77;14.95;;;;;;;0.40;64.90;98522.73;1732429;82;21327;-71
2021/03/22 02:52:29;;;;;;;22.17;14.58;;;;;;;0.37;65.03;98520.53;1741837;82;21438;-71
2021/03/22 02:55:13;;;;;;;22.77;15.05;;;;;;;0.37;65.10;98515.70;1747300;82;21181;-70
2021/03/22 02:57:58;;;;;;;23.67;15.75;;;;;;;0.39;65.14;98516.30;1747523;82;21604;-70
2021/03/22 03:00:36;;;;;;;23.12;16.32;;;;;;;0.38;65.28;98510.13;1747466;82;21173;-71
2021/03/22 03:03:08;;;;;;;24.45;15.30;;;;;;;0.40;65.32;98503.17;1740193;82;21154;-71
2021/03/22 03:05:37;;;;;;;23.00;15.70;;;;;;;0.40;65.46;98511.20;1717257;82;21704;-70
2021/03/22 03:08:12;;;;;;;20.50;13.80;;;;;;;0.41;65.49;98508.31;1716281;82;21604;-71
2021/03/22 03:10:40;;;;;;;23.18;15.53;;;;;;;0.39;65.45;98510.39;1716264;83;21149;-70
2021/03/22 03:13:08;;;;;;;20.32;13.68;;;;;;;0.35;65.58;98505.24;1738253;82;21209;-71
2021/03/22 03:15:38;;;;;;;24.07;15.35;;;;;;;0.38;65.48;98508.78;1697800;82;21545;-71
2021/03/22 03:18:06;;;;;;;24.60;15.78;;;;;;;0.37;65.46;98504.98;1741290;82;21201;-70
2021/03/22 03:20:34;;;;;;;22.07;14.45;;;;;;;0.40;65.41;98505.33;1741446;82;21217;-70
2021/03/22 03:23:01;;;;;;;20.00;13.62;;;;;;;0.40;65.37;98502.66;1741348;82;21573;-71
2021/03/22 03:25:30;;;;;;;20.82;13.70;;;;;;;0.39;65.37;98509.05;1740888;81;21145;-71
2021/03/22 03:27:58;;;;;;;22.70;16.30;;;;;;;0.35;65.50;98509.26;1740108;82;21193;-70
2021/03/22 03:30:29;;;;;;;25.97;16.97;;;;;;;0.33;65.64;98510.52;1739828;82;21188;-71
2021/03/22 03:32:57;;;;;;;25.55;16.48;;;;;;;0.33;65.69;98505.17;1740097;82;21914;-71
2021/03/22 03:35:29;;;;;;;25.17;16.37;;;;;;;0.35;65.81;98503.91;1740027;82;21169;-71
2021/03/22 03:37:57;;;;;;;22.82;15.30;;;;;;;0.34;65.80;98494.23;1739866;82;21213;-71
2021/03/22 03:40:38;;;;;;;23.00;16.15;;;;;;;0.36;65.88;98495.32;1739925;82;21601;-71
2021/03/22 03:43:05;;;;;;;24.35;16.80;;;;;;;0.37;65.89;98498.30;1720889;83;21184;-71
2021/03/22 03:45:36;;;;;;;25.80;16.67;;;;;;;0.34;66.01;98491.56;1746455;82;21180;-71
2021/03/22 03:48:07;;;;;;;25.43;15.95;;;;;;;0.38;66.06;98487.89;1751515;82;21141;-71
2021/03/22 03:50:37;;;;;;;23.00;15.80;;;;;;;0.38;66.32;98483.35;1752650;82;21161;-71
2021/03/22 03:53:04;;;;;;;24.90;15.75;;;;;;;0.36;66.45;98477.41;1752535;82;21330;-72
2021/03/22 03:55:32;;;;;;;22.17;15.68;;;;;;;0.35;66.68;98481.67;1752570;82;21199;-70
2021/03/22 03:58:00;;;;;;;25.70;16.42;;;;;;;0.31;66.90;98482.67;1752675;82;21213;-71
2021/03/22 04:00:35;;;;;;;24.40;16.42;;;;;;;0.28;67.12;98487.69;1751471;82;21169;-70
2021/03/22 04:03:31;;;;;;;24.12;15.43;;;;;;;0.29;67.11;98480.73;1751483;82;21158;-70
2021/03/22 04:06:18;;;;;;;24.90;16.52;;;;;;;0.30;67.21;98477.02;1738499;82;21629;-68
2021/03/22 04:08:56;;;;;;;24.00;15.70;;;;;;;0.27;67.30;98484.70;1716037;82;21118;-71
2021/03/22 04:11:31;;;;;;;23.50;16.45;;;;;;;0.21;67.48;98479.78;1738271;82;21295;-70
2021/03/22 04:13:59;;;;;;;28.23;17.60;;;;;;;0.20;67.56;98484.02;1738367;82;21701;-70
2021/03/22 04:16:28;;;;;;;30.30;19.05;;;;;;;0.21;67.69;98480.30;1738368;82;21161;-70
2021/03/22 04:18:56;;;;;;;30.45;18.87;;;;;;;0.22;67.64;98478.71;1738315;82;21181;-70
2021/03/22 04:21:28;;;;;;;30.25;18.65;;;;;;;0.20;67.56;98480.00;1749453;82;21185;-70
2021/03/22 04:23:57;;;;;;;28.05;16.32;;;;;;;0.20;67.59;98473.31;1740741;82;21195;-70
2021/03/22 04:26:25;;;;;;;27.90;17.40;;;;;;;0.23;67.62;98478.19;1738393;82;21504;-70
2021/03/22 04:28:52;;;;;;;28.40;18.67;;;;;;;0.21;67.68;98473.09;1746360;80;21156;-71
2021/03/22 04:31:24;;;;;;;23.75;15.45;;;;;;;0.24;67.74;98472.62;1756274;82;21204;-72
2021/03/22 04:33:52;;;;;;;24.25;15.75;;;;;;;0.26;67.63;98471.02;1756245;82;21180;-71
2021/03/22 04:36:26;;;;;;;27.95;17.87;;;;;;;0.24;67.73;98477.97;1756121;82;21779;-69
2021/03/22 04:38:54;;;;;;;27.65;17.70;;;;;;;0.26;67.81;98477.72;1754056;80;21656;-68
2021/03/22 04:41:22;;;;;;;22.62;15.15;;;;;;;0.29;67.81;98479.40;1752727;82;21187;-69
2021/03/22 04:43:50;;;;;;;24.20;14.90;;;;;;;0.35;67.67;98474.98;1723619;82;21177;-70
2021/03/22 04:46:18;;;;;;;24.10;15.88;;;;;;;0.35;67.65;98482.48;1751732;82;21177;-71
2021/03/22 04:48:47;;;;;;;22.37;15.03;;;;;;;0.37;67.70;98486.25;1747371;82;21165;-71
2021/03/22 04:51:15;;;;;;;24.57;15.90;;;;;;;0.23;67.59;98462.95;1751860;82;21177;-71
2021/03/22 04:53:42;;;;;;;25.80;16.25;;;;;;;0.41;67.50;98480.72;1751800;80;21169;-71
2021/03/22 04:56:11;;;;;;;23.40;15.40;;;;;;;0.46;67.40;98482.17;1751664;82;21239;-71
2021/03/22 04:58:39;;;;;;;22.20;15.32;;;;;;;0.46;67.27;98480.28;1749328;81;21201;-71
2021/03/22 05:01:09;;;;;;;22.25;15.05;;;;;;;0.52;67.18;98485.75;1752581;81;21156;-70
2021/03/22 05:03:37;;;;;;;22.45;14.55;;;;;;;0.48;67.23;98482.73;1757584;81;21176;-71
2021/03/22 05:06:05;;;;;;;21.00;13.45;;;;;;;0.53;67.03;98482.85;1757395;81;21576;-72
2021/03/22 05:08:33;;;;;;;23.02;15.08;;;;;;;0.53;67.08;98478.02;1751702;80;21189;-70
2021/03/22 05:11:01;;;;;;;20.50;13.65;;;;;;;0.55;66.85;98483.94;1751844;82;21144;-71
2021/03/22 05:13:31;;;;;;;22.52;14.68;;;;;;;0.59;66.78;98479.21;1751969;80;21189;-71
2021/03/22 05:15:58;;;;;;;21.68;13.50;;;;;;;0.68;66.65;98491.69;1751852;82;21189;-71
2021/03/22 05:18:27;;;;;;;22.07;15.25;;;;;;;0.74;66.42;98486.73;1703816;83;21880;-70
2021/03/22 05:21:02;;;;;;;21.25;13.65;;;;;;;0.77;66.13;98487.59;1746435;81;21177;-72
2021/03/22 05:23:30;;;;;;;22.70;14.38;;;;;;;0.84;65.97;98493.10;1757741;81;21157;-69
2021/03/22 05:25:58;;;;;;;20.88;13.13;;;;;;;0.89;65.56;98495.86;1726424;82;21173;-70
2021/03/22 05:28:27;;;;;;;20.27;13.78;;;;;;;0.97;65.46;98500.02;1723647;82;21576;-71
2021/03/22 05:30:55;;;;;;;21.95;14.13;;;;;;;1.01;65.43;98505.19;1750497;82;21161;-72
2021/03/22 05:33:24;;;;;;;20.12;13.70;;;;;;;1.10;65.05;98510.44;1750460;82;21636;-71
2021/03/22 05:35:56;;;;;;;21.60;14.15;;;;;;;1.16;64.94;98504.14;1753026;82;21167;-71
2021/03/22 05:38:25;;;;;;;22.00;14.38;;;;;;;1.21;64.69;98502.05;1754593;80;21730;-71
2021/03/22 05:41:07;;;;;;;22.35;13.45;;;;;;;1.23;64.63;98512.02;1754467;82;21564;-70
2021/03/22 05:43:49;;;;;;;21.48;13.80;;;;;;;1.26;64.22;98506.99;1724354;82;21141;-71
2021/03/22 05:46:42;;;;;;;20.20;13.55;;;;;;;1.30;64.19;98505.46;1750595;82;21185;-69
2021/03/22 05:49:30;;;;;;;21.48;14.00;;;;;;;1.33;64.55;98506.31;1750586;82;21572;-71
2021/03/22 05:52:24;;;;;;;21.35;13.10;;;;;;;1.35;64.35;98497.48;1750419;82;21300;-71
2021/03/22 05:55:20;;;;;;;21.95;13.98;;;;;;;1.44;64.39;98506.78;1750555;82;21271;-71
2021/03/22 05:58:10;;;;;;;21.87;15.03;;;;;;;1.52;64.40;98494.84;1752260;81;21146;-71
2021/03/22 06:00:56;;;;;;;20.25;13.45;;;;;;;1.54;64.48;98498.08;1719751;81;21246;-71
2021/03/22 06:03:35;;;;;;;20.25;13.55;;;;;;;1.57;64.58;98493.56;1757449;81;21192;-70
2021/03/22 06:06:26;;;;;;;19.65;12.60;;;;;;;1.60;64.71;98499.77;1751723;81;21161;-71
2021/03/22 06:09:05;;;;;;;20.25;13.18;;;;;;;1.60;65.09;98496.27;1751535;82;21188;-70
2021/03/22 06:11:55;;;;;;;22.55;14.65;;;;;;;1.58;65.45;98497.06;1727667;82;21586;-70
2021/03/22 06:14:55;;;;;;;17.92;13.08;;;;;;;1.58;65.51;98496.53;1751490;82;21528;-71
2021/03/22 06:17:31;;;;;;;20.12;13.03;;;;;;;1.58;65.83;98501.91;1747922;82;21180;-70
2021/03/22 06:20:01;;;;;;;19.67;13.55;;;;;;;1.56;66.61;98504.00;1749402;82;21206;-70
2021/03/22 06:22:31;;;;;;;20.52;12.82;;;;;;;1.56;67.01;98509.92;1750413;81;21560;-71
2021/03/22 06:25:02;;;;;;;17.65;12.40;;;;;;;1.56;67.28;98504.55;1756924;81;21200;-70
2021/03/22 06:27:30;;;;;;;20.70;12.82;;;;;;;1.52;67.87;98504.22;1757418;81;21188;-71
2021/03/22 06:29:58;;;;;;;19.23;13.32;;;;;;;1.56;68.41;98507.23;1757417;81;21149;-70
2021/03/22 06:32:32;;;;;;;19.12;12.70;;;;;;;1.60;68.63;98515.87;1757443;81;21144;-72
2021/03/22 06:35:04;;;;;;;20.00;12.80;;;;;;;1.60;69.52;98519.08;1751216;81;21214;-73
2021/03/22 06:37:35;;;;;;;19.27;12.90;;;;;;;1.59;70.23;98524.17;1750480;82;21194;-72
2021/03/22 06:40:18;;;;;;;18.27;12.70;;;;;;;1.53;70.86;98525.13;1750260;82;21655;-70
2021/03/22 06:42:45;;;;;;;19.70;13.20;;;;;;;1.49;71.36;98526.14;1731549;81;21130;-71
2021/03/22 06:45:43;;;;;;;18.35;13.32;;;;;;;1.52;71.56;98519.50;1653656;83;21185;-69
2021/03/22 06:48:18;;;;;;;17.98;12.80;;;;;;;1.52;71.90;98520.31;1716093;83;21371;-70
2021/03/22 06:50:48;;;;;;;18.77;13.18;;;;;;;1.54;72.70;98525.42;1716177;83;21138;-70
2021/03/22 06:53:39;;;;;;;18.82;13.25;;;;;;;1.61;72.84;98537.63;1728333;82;21210;-71
2021/03/22 06:56:15;;;;;;;19.73;13.85;;;;;;;1.59;72.75;98534.38;1741414;82;21587;-71
2021/03/22 06:58:43;;;;;;;18.30;12.70;;;;;;;1.55;73.49;98527.88;1740878;82;21214;-71
2021/03/22 07:01:29;;;;;;;19.98;13.60;;;;;;;1.64;73.44;98534.97;1741176;82;21303;-70
2021/03/22 07:04:20;;;;;;;19.45;13.40;;;;;;;1.69;72.94;98528.36;1739850;82;21133;-70
2021/03/22 07:07:12;;;;;;;19.12;12.30;;;;;;;1.55;73.40;98532.42;1732706;82;21609;-71
2021/03/22 07:09:44;;;;;;;20.35;14.30;;;;;;;1.50;74.00;98533.95;1734018;82;21153;-70
2021/03/22 07:12:26;;;;;;;19.55;14.07;;;;;;;1.54;74.25;98542.86;1738706;82;21208;-70
2021/03/22 07:15:32;;;;;;;19.20;14.65;;;;;;;1.54;74.87;98534.81;1767571;79;28380;-70
2021/03/22 07:18:17;;;;;;;17.70;12.60;;;;;;;1.79;74.43;98543.28;1724575;83;21327;-68
2021/03/22 07:23:19;;;;;;;18.45;12.98;;;;;;;2.02;74.27;98540.41;1780184;79;23062;-71
2021/03/22 07:26:09;;;;;;;19.65;13.68;;;;;;;1.92;74.53;98541.08;1752913;82;21170;-71
2021/03/22 07:29:16;;;;;;;18.60;13.32;;;;;;;1.91;74.54;98548.05;1744285;82;21145;-71
2021/03/22 07:32:19;;;;;;;19.37;12.70;;;;;;;2.05;74.70;98541.81;1745728;82;21161;-70
2021/03/22 07:35:04;;;;;;;18.98;13.25;;;;;;;1.98;73.86;98540.09;1753148;81;21243;-69
2021/03/22 07:37:59;;;;;;;21.27;13.85;;;;;;;1.88;74.78;98545.30;1740953;82;21569;-70
2021/03/22 07:40:49;;;;;;;18.90;13.20;;;;;;;1.90;75.33;98539.70;1723122;83;21197;-71
2021/03/22 07:43:59;;;;;;;21.97;13.88;;;;;;;1.94;75.06;98540.84;1723280;83;21601;-70
2021/03/22 07:46:51;;;;;;;18.62;14.03;;;;;;;1.84;75.42;98543.38;1722960;83;21228;-71
2021/03/22 07:49:54;;;;;;;18.45;12.70;;;;;;;1.92;75.02;98542.42;1751046;82;21157;-71
2021/03/22 07:52:36;;;;;;;21.25;14.20;;;;;;;2.05;75.64;98543.16;1724290;82;21189;-71
2021/03/22 07:55:28;;;;;;;19.60;14.33;;;;;;;2.06;74.58;98540.73;1723240;83;21541;-70
2021/03/22 07:58:23;;;;;;;19.77;13.60;;;;;;;2.17;73.96;98541.17;1750578;82;21299;-71
2021/03/22 08:01:28;;;;;;;20.48;14.23;;;;;;;2.24;73.37;98538.59;1752703;82;21130;-69
2021/03/22 08:04:28;;;;;;;19.27;12.95;;;;;;;2.22;73.66;98542.59;1752812;82;21385;-69
2021/03/22 08:07:08;;;;;;;21.20;14.65;;;;;;;2.19;73.96;98549.81;1742564;82;21432;-70
2021/03/22 08:10:16;;;;;;;19.07;13.60;;;;;;;2.24;73.79;98545.83;1723563;82;21636;-69
2021/03/22 08:12:52;;;;;;;20.25;14.55;;;;;;;2.30;73.43;98545.66;1722989;83;21125;-70
2021/03/22 08:15:38;;;;;;;19.60;14.00;;;;;;;2.18;73.88;98545.48;1729187;82;21305;-70
2021/03/22 08:18:30;;;;;;;19.80;14.78;;;;;;;2.19;74.22;98549.28;1742912;82;21161;-70
2021/03/22 08:21:06;;;;;;;20.05;14.93;;;;;;;2.27;73.26;98545.34;1752853;81;21205;-72
2021/03/22 08:23:59;;;;;;;20.77;15.32;;;;;;;2.32;74.68;98543.55;1739542;82;21712;-70
2021/03/22 08:26:32;;;;;;;19.20;13.35;;;;;;;2.50;74.82;98535.21;1737684;81;21375;-69
2021/03/22 08:29:09;;;;;;;19.35;13.93;;;;;;;2.65;71.99;98535.13;1738800;82;21181;-69
2021/03/22 08:31:52;;;;;;;18.00;13.13;;;;;;;2.68;72.05;98544.84;1739804;82;22561;-69
2021/03/22 08:34:34;;;;;;;21.23;14.15;;;;;;;2.72;71.04;98541.12;1735014;82;21131;-70
2021/03/22 08:37:21;;;;;;;19.15;13.58;;;;;;;2.71;70.59;98540.84;1709364;84;21181;-68
2021/03/22 08:40:06;;;;;;;17.07;12.37;;;;;;;2.89;71.24;98535.15;1709704;84;21340;-70
2021/03/22 08:42:51;;;;;;;19.80;14.53;;;;;;;2.99;69.39;98533.92;1708995;83;21178;-71
2021/03/22 08:45:39;;;;;;;19.20;13.55;;;;;;;2.99;69.03;98541.98;1711792;82;21193;-70
2021/03/22 08:48:23;;;;;;;19.85;14.10;;;;;;;2.86;68.46;98542.38;1709638;84;21150;-70
2021/03/22 08:50:50;;;;;;;17.48;14.00;;;;;;;2.70;69.17;98541.89;1728156;82;21189;-71
2021/03/22 08:53:22;;;;;;;18.00;14.00;;;;;;;2.78;68.99;98547.66;1739169;82;21665;-70
2021/03/22 08:56:01;;;;;;;22.40;15.83;;;;;;;2.72;69.02;98547.84;1729396;82;21169;-70
2021/03/22 08:58:40;;;;;;;19.12;14.80;;;;;;;2.65;69.79;98548.03;1710511;82;21227;-70
2021/03/22 09:01:25;;;;;;;20.48;13.98;;;;;;;2.62;69.48;98551.75;1726785;82;21197;-70
2021/03/22 09:03:53;;;;;;;19.55;13.38;;;;;;;2.51;69.49;98552.94;1739050;82;21174;-70
2021/03/22 09:06:27;;;;;;;18.67;13.70;;;;;;;2.45;70.26;98558.48;1732581;82;21142;-70
2021/03/22 09:09:05;;;;;;;18.65;14.18;;;;;;;2.40;71.00;98559.25;1710448;82;21157;-70
2021/03/22 09:11:48;;;;;;;23.15;15.43;;;;;;;2.40;71.47;98557.91;1709610;84;21189;-71
2021/03/22 09:14:38;;;;;;;20.75;14.45;;;;;;;2.41;71.46;98547.42;1709643;84;21362;-69
2021/03/22 09:17:43;;;;;;;16.93;12.40;;;;;;;2.43;70.50;98557.94;1709524;84;21166;-71
2021/03/22 09:20:23;;;;;;;20.65;15.43;;;;;;;2.48;71.00;98556.12;1709634;84;21177;-68
2021/03/22 09:23:00;;;;;;;21.82;14.03;;;;;;;2.56;71.93;98541.45;1718336;83;21171;-69
2021/03/22 09:25:54;;;;;;;16.75;12.85;;;;;;;2.80;71.57;98544.73;1725786;82;21642;-70
2021/03/22 09:28:29;;;;;;;15.60;12.45;;;;;;;2.93;70.28;98551.88;1723367;82;21129;-71
2021/03/22 09:31:10;;;;;;;17.52;13.10;;;;;;;2.83;68.94;98556.32;1723190;83;21166;-70
2021/03/22 09:34:00;;;;;;;17.90;14.13;;;;;;;2.60;69.73;98551.17;1723539;82;21205;-70
2021/03/22 09:36:48;;;;;;;18.62;14.35;;;;;;;2.54;70.70;98548.14;1696830;83;21201;-70
2021/03/22 09:39:24;;;;;;;19.67;14.53;;;;;;;2.68;70.80;98550.22;1723514;83;21642;-70
2021/03/22 09:42:13;;;;;;;16.50;12.03;;;;;;;2.86;70.00;98547.22;1723236;83;21684;-69
2021/03/22 09:45:02;;;;;;;17.57;13.50;;;;;;;3.00;70.99;98541.74;1725209;82;21129;-69
2021/03/22 09:47:35;;;;;;;18.25;13.70;;;;;;;3.20;69.01;98545.70;1723362;82;21157;-70
2021/03/22 09:50:25;;;;;;;16.97;12.68;;;;;;;3.17;67.65;98552.41;1723416;83;21181;-71
2021/03/22 09:52:58;;;;;;;18.95;13.65;;;;;;;3.07;68.49;98556.33;1723994;82;21165;-72
2021/03/22 09:55:34;;;;;;;19.02;13.88;;;;;;;3.01;69.09;98554.09;1752974;82;21202;-70
2021/03/22 09:58:28;;;;;;;17.80;13.48;;;;;;;2.91;69.40;98565.27;1752698;82;21173;-72
2021/03/22 10:01:04;;;;;;;16.55;13.08;;;;;;;2.65;69.55;98557.44;1753065;82;21204;-68
2021/03/22 10:03:40;;;;;;;14.25;11.20;;;;;;;2.49;70.41;98561.78;1753090;82;21137;-69
2021/03/22 10:06:49;;;;;;;15.35;11.80;;;;;;;2.54;70.71;98566.95;1728320;82;21165;-68
2021/03/22 10:09:30;;;;;;;17.87;12.47;;;;;;;2.55;71.23;98573.40;1724725;83;21489;-68
2021/03/22 10:11:58;;;;;;;16.93;13.08;;;;;;;2.46;71.84;98579.74;1727363;82;21287;-69
2021/03/22 10:14:33;;;;;;;17.27;13.75;;;;;;;2.39;72.22;98585.00;1724989;83;21342;-70
2021/03/22 10:17:02;;;;;;;16.32;12.73;;;;;;;2.45;72.36;98586.16;1722833;83;21188;-69
2021/03/22 10:19:32;;;;;;;20.43;14.75;;;;;;;2.48;71.70;98586.20;1723003;83;21214;-69
2021/03/22 10:22:19;;;;;;;17.73;13.10;;;;;;;2.39;71.92;98587.16;1696695;83;21251;-70
2021/03/22 10:25:18;;;;;;;16.85;13.03;;;;;;;2.32;72.00;98585.18;1753010;82;21543;-69
2021/03/22 10:27:46;;;;;;;21.23;15.23;;;;;;;2.25;72.44;98587.22;1752758;82;21590;-70
2021/03/22 10:30:20;;;;;;;19.87;13.93;;;;;;;2.33;72.04;98589.50;1753014;82;21118;-68
2021/03/22 10:33:00;;;;;;;20.27;14.20;;;;;;;2.35;71.50;98595.42;1733745;82;21620;-69
2021/03/22 10:35:46;;;;;;;19.42;15.48;;;;;;;2.25;71.44;98590.44;1738750;82;21671;-69
2021/03/22 10:38:26;;;;;;;23.30;16.67;;;;;;;2.14;71.89;98599.39;1752967;82;21181;-70
2021/03/22 10:40:54;;;;;;;20.68;16.48;;;;;;;2.09;72.19;98594.74;1741660;82;21165;-70
2021/03/22 10:43:35;;;;;;;18.62;14.00;;;;;;;2.11;71.42;98592.64;1723049;83;21197;-70
2021/03/22 10:46:21;;;;;;;20.40;15.15;;;;;;;2.05;71.60;98590.95;1723176;83;21169;-69
2021/03/22 10:49:10;;;;;;;19.45;13.13;;;;;;;2.04;72.03;98584.47;1723068;83;21161;-69
2021/03/22 10:51:46;;;;;;;16.90;12.88;;;;;;;2.10;71.36;98570.88;1736281;82;21173;-69
2021/03/22 10:54:20;;;;;;;17.32;13.32;;;;;;;2.20;70.50;98575.58;1752962;82;21143;-69
2021/03/22 10:56:57;;;;;;;18.50;14.68;;;;;;;2.22;70.64;98572.95;1755603;81;21161;-70
2021/03/22 10:59:31;;;;;;;18.87;14.35;;;;;;;2.22;69.64;98578.84;1752145;82;21168;-70
2021/03/22 11:02:01;;;;;;;17.73;13.10;;;;;;;2.24;70.12;98576.19;1725119;83;21186;-70
2021/03/22 11:04:33;;;;;;;16.95;12.53;;;;;;;2.37;69.29;98570.46;1725151;83;21165;-70
2021/03/22 11:07:15;;;;;;;17.67;13.03;;;;;;;2.48;68.87;98572.77;1723336;83;21157;-71
2021/03/22 11:10:18;;;;;;;16.62;13.10;;;;;;;2.43;68.43;98568.68;1685611;82;21203;-72
2021/03/22 11:12:49;;;;;;;14.95;11.05;;;;;;;2.38;68.69;98579.34;1684946;82;21129;-72
2021/03/22 11:15:37;;;;;;;14.80;11.88;;;;;;;2.50;69.44;98573.34;1753097;82;21211;-72
2021/03/22 11:18:13;;;;;;;16.35;12.40;;;;;;;2.57;66.86;98563.23;1726263;82;21177;-71
2021/03/22 11:20:48;;;;;;;14.18;10.90;;;;;;;2.54;67.47;98564.27;1696178;82;21170;-72
2021/03/22 11:23:27;;;;;;;16.85;12.00;;;;;;;2.55;68.20;98557.28;1752722;81;21603;-70
2021/03/22 11:26:00;;;;;;;16.75;12.28;;;;;;;2.64;67.08;98567.08;1752296;82;21170;-72
2021/03/22 11:28:30;;;;;;;15.60;11.38;;;;;;;2.78;66.39;98564.30;1739353;82;21229;-71
2021/03/22 11:31:05;;;;;;;14.53;11.40;;;;;;;2.86;65.58;98563.35;1752357;82;21113;-70
2021/03/22 11:33:44;;;;;;;16.60;12.47;;;;;;;2.78;66.03;98562.44;1751758;82;21185;-71
2021/03/22 11:36:22;;;;;;;18.30;13.32;;;;;;;2.72;65.92;98565.31;1753032;81;21134;-70
2021/03/22 11:38:58;;;;;;;15.38;11.78;;;;;;;2.74;66.54;98567.20;1752189;82;21173;-69
2021/03/22 11:41:39;;;;;;;16.77;12.88;;;;;;;2.79;65.92;98570.79;1750828;82;21180;-71
2021/03/22 11:44:25;;;;;;;14.60;11.68;;;;;;;2.83;65.52;98569.76;1752887;82;21195;-70
2021/03/22 11:46:57;;;;;;;16.60;12.98;;;;;;;2.85;65.84;98565.75;1752877;82;21605;-71
2021/03/22 11:49:38;;;;;;;16.73;12.00;;;;;;;2.89;66.35;98571.44;1733437;82;21511;-70
2021/03/22 11:52:25;;;;;;;15.20;11.43;;;;;;;2.86;64.84;98582.17;1715774;83;21645;-70
2021/03/22 11:54:58;;;;;;;14.83;11.13;;;;;;;2.68;64.25;98548.88;1723366;83;21177;-69
2021/03/22 11:57:38;;;;;;;15.45;11.33;;;;;;;2.75;64.84;98571.53;1723189;82;21554;-70
2021/03/22 12:00:20;;;;;;;17.02;12.50;;;;;;;2.65;65.37;98568.72;1723092;83;21165;-69
2021/03/22 12:02:53;;;;;;;15.32;12.13;;;;;;;2.63;65.76;98576.19;1723111;83;21632;-69
2021/03/22 12:05:32;;;;;;;16.10;12.03;;;;;;;2.63;64.69;98572.16;1722995;83;21164;-70
2021/03/22 12:08:07;;;;;;;16.57;12.43;;;;;;;2.66;65.15;98570.34;1725156;82;21600;-70
2021/03/22 12:10:33;;;;;;;16.10;12.63;;;;;;;2.65;64.71;98576.77;1721867;82;21163;-69
2021/03/22 12:13:03;;;;;;;15.32;11.65;;;;;;;2.62;65.12;98579.96;1753020;82;21177;-70
2021/03/22 12:15:31;;;;;;;17.12;12.37;;;;;;;2.56;64.47;98580.41;1752580;82;21173;-71